Time;durP1;ratioP1;P1;durP2;ratioP2;P2;SDS_P1;SDS_P2;PMS_P1;PMS_P2;Temp;Humidity;BMP_temperature;BMP_pressure;BME280_temperature;BME280_humidity;BME280_pressure;Samples;Min_cycle;Max_cycle;Signal;HPM_P1;HPM_P2
2023/03/04 00:00:46;;;;;;;;;;;;;;;;;;;;;
2023/03/04 00:03:30;;;;;;;;;;;;;;;;;;;;;
2023/03/04 00:06:09;;;;;;;0.00;0.00;;;;;;;5.02;63.69;101771.59;6311318;22;20449;-78
2023/03/04 00:13:57;;;;;;;0.00;0.00;;;;;;;4.93;63.18;101748.34;6283737;22;20019;-78
2023/03/04 00:17:11;;;;;;;0.00;0.00;;;;;;;5.03;63.17;101735.28;6253909;22;20011;-77
2023/03/04 00:19:17;;;;;;;0.00;0.00;;;;;;;5.22;62.79;101751.91;6267685;22;20006;-77
2023/03/04 00:21:43;;;;;;;0.00;0.00;;;;;;;5.51;62.42;101782.56;6252243;22;20041;-76
2023/03/04 00:24:10;;;;;;;0.00;0.00;;;;;;;5.53;62.52;101770.47;6255891;22;20011;-76
2023/03/04 00:26:38;;;;;;;0.00;0.00;;;;;;;5.53;61.67;101781.31;6229874;22;20000;-77
2023/03/04 00:29:04;;;;;;;0.00;0.00;;;;;;;5.57;62.17;101776.34;6258055;22;20003;-77
2023/03/04 00:31:29;;;;;;;0.00;0.00;;;;;;;5.49;61.37;101773.78;6230309;22;20022;-76
2023/03/04 00:33:57;;;;;;;0.00;0.00;;;;;;;5.61;62.12;101799.34;6258566;22;19980;-76
2023/03/04 00:36:27;;;;;;;0.00;0.00;;;;;;;5.51;61.94;101782.56;6282389;22;20096;-76
2023/03/04 00:38:53;;;;;;;0.00;0.00;;;;;;;5.51;61.90;101788.81;6228003;22;20515;-78
2023/03/04 00:41:18;;;;;;;0.00;0.00;;;;;;;5.44;62.23;101770.84;6254580;22;20004;-80
2023/03/04 00:43:46;;;;;;;0.00;0.00;;;;;;;5.34;61.86;101757.63;6224886;22;20004;-75
2023/03/04 00:46:12;;;;;;;0.00;0.00;;;;;;;5.50;62.14;101787.13;6251053;22;20016;-77
2023/03/04 00:48:38;;;;;;;0.00;0.00;;;;;;;5.48;62.25;101777.53;6223618;22;20317;-75
2023/03/04 00:51:03;;;;;;;0.10;0.10;;;;;;;5.55;62.01;101792.81;6278516;22;20018;-77
2023/03/04 00:53:29;;;;;;;0.00;0.00;;;;;;;5.51;62.26;101793.41;6275400;22;20004;-77
2023/03/04 00:55:54;;;;;;;0.00;0.00;;;;;;;5.48;62.23;101791.09;6226869;22;20011;-75
2023/03/04 00:58:20;;;;;;;0.00;0.00;;;;;;;5.48;62.23;101778.38;6201906;22;20034;-75
2023/03/04 01:00:45;;;;;;;0.00;0.00;;;;;;;5.52;62.25;101778.78;6252161;22;19999;-76
2023/03/04 01:03:11;;;;;;;0.00;0.00;;;;;;;5.55;62.29;101778.44;6233615;22;20396;-76
2023/03/04 01:05:36;;;;;;;0.00;0.00;;;;;;;5.64;62.53;101793.50;6203719;22;20327;-76
2023/03/04 01:08:04;;;;;;;0.00;0.00;;;;;;;5.62;62.06;101776.56;6253388;22;20103;-76
2023/03/04 01:10:29;;;;;;;0.00;0.00;;;;;;;5.65;61.02;101795.19;6282515;22;20007;-74
2023/03/04 01:12:55;;;;;;;0.00;0.00;;;;;;;5.51;61.34;101777.16;6249479;22;20202;-77
2023/03/04 01:15:31;;;;;;;;;;;;;;;;;;;;;
2023/03/04 01:17:56;;;;;;;0.00;0.00;;;;;;;5.36;61.94;101780.81;6228234;22;20086;-78
2023/03/04 01:20:22;;;;;;;0.00;0.00;;;;;;;5.39;61.89;101790.44;6227343;22;20007;-77
2023/03/04 01:22:48;;;;;;;0.00;0.00;;;;;;;5.31;61.29;101783.25;6250301;22;20064;-76
2023/03/04 01:25:13;;;;;;;0.00;0.00;;;;;;;5.26;62.31;101774.88;6252646;22;20326;-77
2023/03/04 01:27:41;;;;;;;0.00;0.00;;;;;;;5.21;62.35;101769.19;6254141;22;20063;-76
2023/03/04 01:30:08;;;;;;;0.00;0.00;;;;;;;5.27;61.59;101775.72;6249062;22;20515;-77
2023/03/04 01:32:33;;;;;;;0.00;0.00;;;;;;;5.40;62.24;101786.66;6259098;22;20007;-78
2023/03/04 01:34:59;;;;;;;0.00;0.00;;;;;;;5.33;61.63;101770.34;6249175;22;20010;-77
2023/03/04 01:37:24;;;;;;;0.00;0.00;;;;;;;5.35;62.60;101775.56;6233022;22;20011;-78
2023/03/04 01:39:50;;;;;;;0.00;0.00;;;;;;;5.48;62.63;101777.53;6201327;22;20008;-77
2023/03/04 01:42:26;;;;;;;0.00;0.00;;;;;;;5.46;62.51;101774.16;6255218;22;20004;-76
2023/03/04 01:44:52;;;;;;;0.00;0.00;;;;;;;5.41;62.33;101761.22;6252195;22;20422;-76
2023/03/04 01:47:18;;;;;;;0.00;0.00;;;;;;;5.50;62.41;101776.28;6222991;22;20387;-77
2023/03/04 01:49:50;;;;;;;0.00;0.00;;;;;;;5.52;62.44;101768.81;6225676;22;20003;-76
2023/03/04 01:52:15;;;;;;;0.00;0.00;;;;;;;5.60;62.01;101759.66;6247969;22;20003;-76
2023/03/04 01:54:41;;;;;;;0.00;0.00;;;;;;;5.58;61.89;101750.88;6225584;22;20461;-76
2023/03/04 01:57:34;;;;;;;0.00;0.00;;;;;;;5.63;61.67;101756.53;6223941;22;20008;-77
2023/03/04 02:00:23;;;;;;;0.00;0.00;;;;;;;5.61;61.90;101755.91;6238344;22;20027;-78
2023/03/04 02:02:56;;;;;;;0.10;0.10;;;;;;;5.57;61.20;101760.06;6251806;22;20014;-78
2023/03/04 02:05:22;;;;;;;0.00;0.00;;;;;;;5.55;62.45;101745.88;6250857;22;19999;-77
2023/03/04 02:07:49;;;;;;;0.00;0.00;;;;;;;5.49;61.79;101746.63;6251266;22;20061;-77
2023/03/04 02:10:20;;;;;;;0.00;0.00;;;;;;;5.54;61.68;101744.19;6253633;22;20099;-77
2023/03/04 02:12:46;;;;;;;0.00;0.00;;;;;;;5.49;62.36;101738.50;6248620;22;20042;-79
2023/03/04 02:15:11;;;;;;;0.00;0.00;;;;;;;5.53;61.43;101747.91;6226761;22;20087;-78
2023/03/04 02:17:37;;;;;;;0.00;0.00;;;;;;;5.38;62.50;101729.88;6251244;22;20045;-79
2023/03/04 02:20:05;;;;;;;0.00;0.00;;;;;;;5.45;62.54;101748.06;6223478;22;20007;-78
2023/03/04 02:22:37;;;;;;;0.00;0.00;;;;;;;5.34;61.73;101733.19;6250921;22;20407;-77
2023/03/04 02:25:09;;;;;;;0.00;0.00;;;;;;;5.26;62.16;101720.63;6247362;22;20067;-78
2023/03/04 02:27:35;;;;;;;0.00;0.00;;;;;;;5.34;62.56;101734.03;6250815;22;20419;-78
2023/03/04 02:30:03;;;;;;;0.00;0.00;;;;;;;5.31;62.53;101729.00;6197204;22;20014;-77
2023/03/04 02:32:28;;;;;;;0.00;0.00;;;;;;;5.37;62.72;101739.09;6253123;22;20012;-79
2023/03/04 02:34:55;;;;;;;0.00;0.00;;;;;;;5.27;62.26;101722.31;6225737;22;20015;-77
2023/03/04 02:37:21;;;;;;;0.00;0.00;;;;;;;5.34;61.97;101725.88;6227367;22;20014;-77
2023/03/04 02:40:07;;;;;;;;;;;;;;;;;;;;;
2023/03/04 02:42:35;;;;;;;0.00;0.00;;;;;;;5.37;62.30;101739.09;6282705;22;20027;-77
2023/03/04 02:45:03;;;;;;;0.00;0.00;;;;;;;5.09;62.26;101695.69;6252223;22;20004;-77
2023/03/04 02:47:29;;;;;;;0.00;0.00;;;;;;;5.35;62.97;101741.13;6282022;22;20017;-76
2023/03/04 02:49:57;;;;;;;0.00;0.00;;;;;;;5.23;62.81;101726.47;6255380;22;20094;-77
2023/03/04 02:52:29;;;;;;;0.00;0.00;;;;;;;5.23;62.81;101738.16;6251203;22;20008;-76
2023/03/04 02:54:55;;;;;;;0.00;0.00;;;;;;;5.23;62.41;101743.56;6256887;22;20007;-78
2023/03/04 02:57:20;;;;;;;0.00;0.00;;;;;;;5.16;63.25;101736.44;6251853;22;20003;-78
2023/03/04 02:59:45;;;;;;;0.10;0.10;;;;;;;5.15;62.84;101734.75;6281370;22;20011;-76
2023/03/04 03:02:11;;;;;;;0.00;0.00;;;;;;;5.09;63.07;101730.13;6201830;22;20006;-76
2023/03/04 03:04:39;;;;;;;0.00;0.00;;;;;;;5.19;63.05;101741.44;6254184;22;19999;-76
2023/03/04 03:07:05;;;;;;;0.10;0.10;;;;;;;5.21;63.00;101734.81;6255502;22;20000;-77
2023/03/04 03:09:30;;;;;;;0.00;0.00;;;;;;;5.27;62.83;101737.75;6279729;22;20003;-77
2023/03/04 03:11:56;;;;;;;0.00;0.00;;;;;;;5.32;63.37;101738.81;6205587;22;20018;-78
2023/03/04 03:14:21;;;;;;;0.00;0.00;;;;;;;5.28;62.59;101740.25;6229502;22;20027;-78
2023/03/04 03:16:47;;;;;;;0.00;0.00;;;;;;;5.29;62.90;101736.50;6229891;22;20087;-78
2023/03/04 03:19:14;;;;;;;0.00;0.00;;;;;;;5.23;62.83;101726.47;6204555;22;20019;-78
2023/03/04 03:21:40;;;;;;;0.00;0.00;;;;;;;5.32;62.44;101725.25;6229427;22;20007;-76
2023/03/04 03:24:05;;;;;;;0.00;0.00;;;;;;;5.39;63.13;101734.28;6230137;22;20007;-78
2023/03/04 03:26:31;;;;;;;0.00;0.00;;;;;;;5.25;63.54;101713.53;6282813;22;20314;-76
2023/03/04 03:28:56;;;;;;;0.00;0.00;;;;;;;5.31;62.96;101726.28;6230208;22;20004;-78
2023/03/04 03:31:24;;;;;;;0.00;0.00;;;;;;;5.27;63.24;101716.91;6230900;22;20012;-77
2023/03/04 03:33:50;;;;;;;0.00;0.00;;;;;;;5.38;62.97;101732.59;6254613;22;20019;-76
2023/03/04 03:36:15;;;;;;;0.00;0.00;;;;;;;5.38;62.74;101732.59;6206398;22;20095;-76
2023/03/04 03:38:41;;;;;;;0.05;0.05;;;;;;;5.34;62.83;101734.03;6207040;22;20008;-77
2023/03/04 03:41:06;;;;;;;0.10;0.10;;;;;;;5.33;63.21;101731.50;6258478;22;20032;-76
2023/03/04 03:43:32;;;;;;;0.10;0.10;;;;;;;5.37;63.02;101736.38;6209799;22;20035;-77
2023/03/04 03:45:58;;;;;;;0.00;0.00;;;;;;;5.38;62.65;101738.03;6230457;22;19999;-76
2023/03/04 03:48:23;;;;;;;0.05;0.05;;;;;;;5.31;63.30;101728.19;6204699;22;20008;-76
2023/03/04 03:50:49;;;;;;;0.00;0.00;;;;;;;5.37;62.87;101736.38;6230993;22;20060;-76
2023/03/04 03:53:14;;;;;;;0.00;0.00;;;;;;;5.41;63.22;101728.66;6199913;22;20004;-77
2023/03/04 03:55:40;;;;;;;0.10;0.10;;;;;;;5.45;62.79;101729.09;6228843;22;20003;-77
2023/03/04 03:58:05;;;;;;;0.10;0.10;;;;;;;5.45;62.66;101738.06;6224721;22;20090;-77
2023/03/04 04:00:30;;;;;;;0.00;0.00;;;;;;;5.42;62.18;101720.31;6229353;22;20010;-77
2023/03/04 04:02:58;;;;;;;0.00;0.00;;;;;;;5.27;62.29;101695.19;6249762;22;20419;-76
2023/03/04 04:05:23;;;;;;;0.00;0.00;;;;;;;5.50;62.47;101732.03;6227375;22;20022;-76
2023/03/04 04:07:49;;;;;;;0.10;0.10;;;;;;;5.47;62.59;101721.59;6229414;22;20067;-77
2023/03/04 04:10:15;;;;;;;0.00;0.00;;;;;;;5.45;63.11;101732.66;6201204;22;19992;-77
2023/03/04 04:12:40;;;;;;;0.00;0.00;;;;;;;5.36;62.08;101731.13;6202844;22;20023;-77
2023/03/04 04:15:06;;;;;;;0.00;0.00;;;;;;;5.22;63.18;101720.19;6279045;22;20010;-77
2023/03/04 04:17:32;;;;;;;0.00;0.00;;;;;;;5.22;62.49;101724.78;6204006;22;20422;-77
2023/03/04 04:19:57;;;;;;;0.00;0.00;;;;;;;5.20;63.49;101740.44;6227090;22;20023;-76
2023/03/04 04:22:22;;;;;;;0.00;0.00;;;;;;;5.18;63.02;101745.19;6229754;22;20059;-77
2023/03/04 04:24:48;;;;;;;0.10;0.10;;;;;;;5.20;63.12;101754.00;6279379;22;20007;-76
2023/03/04 04:27:13;;;;;;;0.00;0.00;;;;;;;5.19;63.22;101733.31;6200654;22;20018;-76
2023/03/04 04:29:39;;;;;;;0.00;0.00;;;;;;;5.27;64.04;101741.31;6253208;22;20042;-77
2023/03/04 04:32:05;;;;;;;0.10;0.10;;;;;;;5.35;63.44;101746.56;6224430;22;20011;-77
2023/03/04 04:34:31;;;;;;;0.00;0.00;;;;;;;5.30;63.43;101746.34;6227661;22;20009;-77
2023/03/04 04:36:59;;;;;;;0.00;0.00;;;;;;;5.22;63.01;101741.06;6252299;22;20089;-76
2023/03/04 04:39:24;;;;;;;0.00;0.00;;;;;;;5.26;62.97;101758.63;6250081;22;20003;-77
2023/03/04 04:41:50;;;;;;;0.00;0.00;;;;;;;5.18;63.43;101745.19;6228430;22;20018;-77
2023/03/04 04:44:15;;;;;;;0.00;0.00;;;;;;;5.23;63.93;101746.28;6273377;22;20026;-77
2023/03/04 04:46:41;;;;;;;0.00;0.00;;;;;;;5.13;63.68;101737.66;6253590;22;20101;-76
2023/03/04 04:49:07;;;;;;;0.00;0.00;;;;;;;4.99;64.03;101731.28;6247595;22;19999;-77
2023/03/04 04:51:35;;;;;;;0.00;0.00;;;;;;;5.05;63.45;101744.06;6252241;22;20014;-77
2023/03/04 04:54:01;;;;;;;0.00;0.00;;;;;;;5.05;63.29;101751.34;6227660;22;20057;-77
2023/03/04 04:56:27;;;;;;;0.00;0.00;;;;;;;5.14;63.70;101760.19;6252506;22;19999;-77
2023/03/04 04:58:58;;;;;;;0.00;0.00;;;;;;;5.17;63.82;101757.06;6253097;22;20014;-77
2023/03/04 05:01:24;;;;;;;0.00;0.00;;;;;;;5.18;63.50;101756.91;6250635;22;20000;-78
2023/03/04 05:03:52;;;;;;;0.00;0.00;;;;;;;5.11;64.49;101750.59;6280675;22;20010;-78
2023/03/04 05:06:19;;;;;;;0.00;0.00;;;;;;;5.13;64.17;101748.50;6224953;22;20082;-78
2023/03/04 05:08:45;;;;;;;0.00;0.00;;;;;;;5.17;64.13;101746.22;6252636;22;20023;-77
2023/03/04 05:11:10;;;;;;;0.00;0.00;;;;;;;5.23;63.75;101761.72;6252069;22;20011;-78
2023/03/04 05:13:36;;;;;;;0.00;0.00;;;;;;;5.17;63.74;101754.34;6204110;22;20034;-77
2023/03/04 05:16:02;;;;;;;0.00;0.00;;;;;;;5.19;63.67;101757.72;6253908;22;20014;-78
2023/03/04 05:18:28;;;;;;;0.03;0.03;;;;;;;5.17;63.56;101770.63;6253157;22;20022;-77
2023/03/04 05:20:58;;;;;;;0.10;0.10;;;;;;;5.02;63.92;101752.59;6252532;22;20004;-76
2023/03/04 05:23:25;;;;;;;0.00;0.00;;;;;;;5.03;63.82;101765.09;6278039;22;19992;-77
2023/03/04 05:25:52;;;;;;;0.00;0.00;;;;;;;4.96;64.33;101757.97;6280156;22;20006;-78
2023/03/04 05:28:18;;;;;;;0.00;0.00;;;;;;;4.98;65.01;101767.59;6250225;22;20102;-75
2023/03/04 05:30:45;;;;;;;0.00;0.00;;;;;;;4.96;64.87;101766.09;6250713;22;20018;-76
2023/03/04 05:33:12;;;;;;;0.00;0.00;;;;;;;5.00;64.81;101767.38;6227400;22;20007;-77
2023/03/04 05:35:39;;;;;;;0.00;0.00;;;;;;;5.05;64.23;101771.19;6250318;22;20003;-75
2023/03/04 05:38:07;;;;;;;0.00;0.00;;;;;;;5.02;65.12;101766.16;6226494;22;20407;-76
2023/03/04 05:40:32;;;;;;;0.05;0.05;;;;;;;5.05;63.99;101767.63;6247730;22;20078;-77
2023/03/04 05:42:58;;;;;;;0.00;0.00;;;;;;;5.00;64.94;101765.50;6227379;22;20331;-77
2023/03/04 05:45:25;;;;;;;0.00;0.00;;;;;;;4.90;64.39;101754.97;6252014;22;20007;-77
2023/03/04 05:47:51;;;;;;;0.00;0.00;;;;;;;4.95;65.20;101757.13;6247671;22;20007;-78
2023/03/04 05:50:17;;;;;;;0.10;0.10;;;;;;;4.96;64.20;101758.78;6278339;22;20326;-76
2023/03/04 05:52:42;;;;;;;0.00;0.00;;;;;;;4.94;65.06;101755.44;6249199;22;20221;-74
2023/03/04 05:55:08;;;;;;;0.00;0.00;;;;;;;5.00;64.73;101753.81;6226171;22;20478;-76
2023/03/04 05:57:33;;;;;;;0.00;0.00;;;;;;;5.03;64.77;101756.97;6225527;22;20042;-75
2023/03/04 05:59:59;;;;;;;0.00;0.00;;;;;;;5.05;64.59;101767.63;6228568;22;20484;-76
2023/03/04 06:02:24;;;;;;;0.00;0.00;;;;;;;5.03;64.51;101767.00;6227407;22;20319;-76
2023/03/04 06:04:50;;;;;;;0.00;0.00;;;;;;;5.01;64.61;101761.75;6203457;22;19994;-76
2023/03/04 06:07:15;;;;;;;0.00;0.00;;;;;;;5.01;64.26;101767.19;6229980;22;19992;-76
2023/03/04 06:09:43;;;;;;;0.10;0.10;;;;;;;4.99;64.24;101768.41;6251771;22;20502;-77
2023/03/04 06:12:10;;;;;;;0.00;0.00;;;;;;;4.98;64.01;101772.16;6280632;22;20031;-75
2023/03/04 06:14:35;;;;;;;0.00;0.00;;;;;;;4.83;64.75;101759.53;6225359;22;20016;-76
2023/03/04 06:17:01;;;;;;;0.00;0.00;;;;;;;4.75;64.80;101745.28;6252469;22;20008;-76
2023/03/04 06:19:29;;;;;;;0.00;0.00;;;;;;;5.01;64.76;101759.06;6230911;22;20008;-77
2023/03/04 06:21:54;;;;;;;0.00;0.00;;;;;;;5.06;64.33;101770.13;6263064;22;20015;-77
2023/03/04 06:24:20;;;;;;;0.00;0.00;;;;;;;5.11;64.16;101768.72;6229541;22;20019;-77
2023/03/04 06:26:48;;;;;;;0.00;0.00;;;;;;;5.03;64.21;101769.69;6280995;22;20023;-77
2023/03/04 06:29:16;;;;;;;0.00;0.00;;;;;;;5.07;64.00;101763.69;6280276;22;20065;-77
2023/03/04 06:31:41;;;;;;;0.00;0.00;;;;;;;5.20;64.27;101781.09;6203284;22;20486;-76
2023/03/04 06:34:08;;;;;;;0.00;0.00;;;;;;;4.98;64.05;101766.72;6199689;22;20027;-76
2023/03/04 06:36:36;;;;;;;0.00;0.00;;;;;;;4.88;64.15;101765.19;6254100;22;20409;-76
2023/03/04 06:39:04;;;;;;;0.00;0.00;;;;;;;5.07;64.50;101788.09;6249801;22;20035;-76
2023/03/04 06:41:35;;;;;;;0.00;0.00;;;;;;;5.05;64.27;101771.19;6251983;22;20143;-77
2023/03/04 06:44:00;;;;;;;0.00;0.00;;;;;;;5.12;64.04;101797.50;6250250;22;20038;-76
2023/03/04 06:46:26;;;;;;;0.00;0.00;;;;;;;4.89;64.42;101775.00;6252579;22;20437;-77
2023/03/04 06:48:52;;;;;;;0.00;0.00;;;;;;;4.94;64.62;101779.84;6279693;22;20007;-76
2023/03/04 06:51:18;;;;;;;0.00;0.00;;;;;;;4.97;64.74;101795.72;6252823;22;20065;-77
2023/03/04 06:53:44;;;;;;;0.00;0.00;;;;;;;4.87;64.53;101784.38;6255989;22;20034;-77
2023/03/04 06:56:11;;;;;;;0.00;0.00;;;;;;;4.97;63.97;101795.72;6251270;22;20000;-77
2023/03/04 06:58:37;;;;;;;0.00;0.00;;;;;;;4.93;64.72;101802.56;6228360;22;19984;-77
2023/03/04 07:01:22;;;;;;;0.00;0.00;;;;;;;4.88;64.71;101794.19;6276627;22;19999;-77
2023/03/04 07:03:49;;;;;;;0.00;0.00;;;;;;;5.03;64.79;101803.06;6254100;22;20007;-77
2023/03/04 07:06:16;;;;;;;0.00;0.00;;;;;;;5.10;63.84;101810.44;6251911;22;20007;-78
2023/03/04 07:08:45;;;;;;;0.00;0.00;;;;;;;5.05;63.76;101805.56;6252959;22;20490;-77
2023/03/04 07:11:11;;;;;;;0.00;0.00;;;;;;;5.04;63.70;101809.34;6251604;22;20315;-78
2023/03/04 07:13:37;;;;;;;0.00;0.00;;;;;;;5.04;64.56;101812.88;6226727;22;20027;-77
2023/03/04 07:16:11;;;;;;;0.00;0.00;;;;;;;4.95;64.37;101805.06;6252203;22;20008;-77
2023/03/04 07:18:39;;;;;;;0.00;0.00;;;;;;;5.01;63.74;101818.69;6252134;22;20008;-76
2023/03/04 07:21:06;;;;;;;0.00;0.00;;;;;;;5.00;63.41;101817.00;6254065;22;20300;-76
2023/03/04 07:23:33;;;;;;;0.00;0.00;;;;;;;4.98;64.21;101810.97;6248934;22;20013;-74
2023/03/04 07:25:58;;;;;;;0.00;0.00;;;;;;;4.95;63.80;101800.50;6281031;22;20063;-76
2023/03/04 07:28:23;;;;;;;0.00;0.00;;;;;;;4.99;63.79;101800.94;6224018;22;20018;-74
2023/03/04 07:30:49;;;;;;;0.00;0.00;;;;;;;4.91;63.92;101793.78;6252497;22;20034;-76
2023/03/04 07:33:17;;;;;;;0.00;0.00;;;;;;;5.09;63.47;101814.19;6281663;22;19994;-78
2023/03/04 07:35:42;;;;;;;0.00;0.00;;;;;;;5.09;63.36;101816.88;6279941;22;20229;-77
2023/03/04 07:38:08;;;;;;;0.00;0.00;;;;;;;5.03;63.99;101811.19;6256786;22;20456;-76
2023/03/04 07:40:36;;;;;;;0.00;0.00;;;;;;;5.10;64.02;101819.41;6249374;22;20636;-75
2023/03/04 07:43:03;;;;;;;0.00;0.00;;;;;;;5.13;64.36;101818.19;6253024;22;20046;-75
2023/03/04 07:45:28;;;;;;;0.00;0.00;;;;;;;5.14;63.35;101817.13;6251703;22;20003;-76
2023/03/04 07:47:54;;;;;;;0.00;0.00;;;;;;;5.17;63.52;101820.31;6253290;22;20058;-74
2023/03/04 07:50:19;;;;;;;0.00;0.00;;;;;;;5.10;63.60;101805.03;6227306;22;20022;-75
2023/03/04 07:52:49;;;;;;;0.00;0.00;;;;;;;5.20;63.32;101819.06;6277075;22;20335;-76
2023/03/04 07:55:16;;;;;;;0.00;0.00;;;;;;;5.24;64.05;101823.91;6227719;22;20460;-75
2023/03/04 07:57:43;;;;;;;0.00;0.00;;;;;;;5.29;63.75;101823.31;6225143;22;20035;-74
2023/03/04 08:00:10;;;;;;;0.10;0.10;;;;;;;5.34;62.93;101826.25;6253115;22;19992;-74
2023/03/04 08:02:36;;;;;;;0.00;0.00;;;;;;;5.32;63.30;101817.50;6224970;22;20012;-75
2023/03/04 08:05:02;;;;;;;0.00;0.00;;;;;;;5.36;62.91;101824.22;6252269;22;20442;-75
2023/03/04 08:07:27;;;;;;;0.00;0.00;;;;;;;5.42;63.53;101828.84;6201575;22;20003;-73
2023/03/04 08:09:53;;;;;;;0.00;0.00;;;;;;;5.42;63.64;101817.97;6225710;22;20090;-75
2023/03/04 08:12:18;;;;;;;0.00;0.00;;;;;;;5.51;62.62;101823.28;6203181;22;20377;-76
2023/03/04 08:14:44;;;;;;;0.00;0.00;;;;;;;5.53;62.96;101829.31;6224364;22;20023;-76
2023/03/04 08:17:22;;;;;;;0.10;0.10;;;;;;;5.57;62.36;101836.03;6225886;22;20015;-78
2023/03/04 08:20:16;;;;;;;0.10;0.10;;;;;;;5.53;63.07;101838.28;6252478;22;20014;-77
2023/03/04 08:22:41;;;;;;;0.00;0.00;;;;;;;5.41;62.62;101829.88;6221489;22;20014;-76
2023/03/04 08:25:07;;;;;;;0.00;0.00;;;;;;;5.31;62.41;101823.94;6271906;22;20008;-79
2023/03/04 08:27:32;;;;;;;0.00;0.00;;;;;;;5.23;62.82;101829.53;6202179;22;20061;-78
2023/03/04 08:30:00;;;;;;;0.08;0.08;;;;;;;5.25;62.73;101833.69;6249455;22;20427;-76
2023/03/04 08:32:26;;;;;;;0.00;0.00;;;;;;;5.22;62.27;101830.56;6251572;22;20073;-76
2023/03/04 08:34:53;;;;;;;0.10;0.10;;;;;;;5.22;63.38;101833.25;6251479;22;19996;-78
2023/03/04 08:37:19;;;;;;;0.00;0.00;;;;;;;5.32;62.65;101841.91;6277472;22;20437;-74
2023/03/04 08:39:45;;;;;;;0.00;0.00;;;;;;;5.31;63.12;101840.22;6202661;22;20000;-78
2023/03/04 08:42:10;;;;;;;0.00;0.00;;;;;;;5.35;62.62;101837.97;6248284;22;20015;-77
2023/03/04 08:44:38;;;;;;;0.00;0.00;;;;;;;5.35;62.77;101825.22;6226949;22;20011;-76
2023/03/04 08:47:11;;;;;;;0.00;0.00;;;;;;;5.47;63.29;101840.97;6281022;22;20003;-75
2023/03/04 08:49:39;;;;;;;0.00;0.00;;;;;;;5.39;62.49;101833.84;6279279;22;20197;-76
2023/03/04 08:52:14;;;;;;;0.00;0.00;;;;;;;5.32;62.65;101831.06;6258356;22;20108;-76
2023/03/04 08:54:42;;;;;;;0.00;0.00;;;;;;;5.41;62.35;101848.84;6260159;22;20012;-78
2023/03/04 08:57:07;;;;;;;0.00;0.00;;;;;;;5.48;61.64;101850.81;6284958;22;20356;-76
2023/03/04 08:59:32;;;;;;;0.00;0.00;;;;;;;5.52;62.01;101852.06;6250564;22;20011;-77
2023/03/04 09:01:58;;;;;;;0.10;0.10;;;;;;;5.52;62.12;101849.34;6204203;22;20008;-77
2023/03/04 09:04:26;;;;;;;0.00;0.00;;;;;;;5.58;61.67;101854.84;6226162;22;20004;-77
2023/03/04 09:06:51;;;;;;;0.00;0.00;;;;;;;5.57;61.48;101845.00;6253498;22;20007;-77
2023/03/04 09:09:18;;;;;;;0.00;0.00;;;;;;;5.56;60.99;101842.50;6251489;22;20012;-76
2023/03/04 09:11:46;;;;;;;0.00;0.00;;;;;;;5.59;61.03;101840.25;6251528;22;20003;-76
2023/03/04 09:14:11;;;;;;;0.00;0.00;;;;;;;5.77;61.19;101858.72;6204853;23;20016;-76
2023/03/04 09:16:39;;;;;;;0.00;0.00;;;;;;;5.72;60.69;101835.91;6193119;23;20022;-75
2023/03/04 09:19:13;;;;;;;0.00;0.00;;;;;;;5.84;60.55;101858.78;6222503;23;20011;-75
2023/03/04 09:21:48;;;;;;;0.00;0.00;;;;;;;5.92;61.27;101865.91;6192550;23;20004;-76
2023/03/04 09:24:13;;;;;;;0.00;0.00;;;;;;;5.96;60.59;101859.06;6197953;23;20015;-76
2023/03/04 09:26:39;;;;;;;0.00;0.00;;;;;;;5.91;60.20;101854.22;6242357;23;20008;-75
2023/03/04 09:29:05;;;;;;;0.00;0.00;;;;;;;5.92;60.17;101849.63;6221973;23;20047;-75
2023/03/04 09:31:33;;;;;;;0.00;0.00;;;;;;;5.90;60.14;101847.09;6220298;23;20019;-75
2023/03/04 09:33:59;;;;;;;0.00;0.00;;;;;;;5.98;60.68;101843.41;6217966;23;20012;-77
2023/03/04 09:36:25;;;;;;;0.00;0.00;;;;;;;6.10;60.21;101858.13;6221799;23;20012;-76
2023/03/04 09:38:53;;;;;;;0.00;0.00;;;;;;;6.16;59.46;101850.19;6216640;23;20000;-76
2023/03/04 09:41:27;;;;;;;0.00;0.00;;;;;;;6.13;59.08;101850.59;6221720;23;20083;-77
2023/03/04 09:43:53;;;;;;;0.00;0.00;;;;;;;6.17;59.65;101846.44;6243334;23;20059;-76
2023/03/04 09:46:31;;;;;;;0.00;0.00;;;;;;;6.25;59.11;101848.97;6220304;23;20007;-75
2023/03/04 09:48:59;;;;;;;0.00;0.00;;;;;;;6.18;59.21;101843.53;6217544;23;20007;-76
2023/03/04 09:51:41;;;;;;;0.00;0.00;;;;;;;6.25;58.56;101859.84;6220222;23;20434;-76
2023/03/04 09:54:17;;;;;;;0.00;0.00;;;;;;;6.23;59.17;101856.50;6218237;23;20032;-76
2023/03/04 09:56:48;;;;;;;0.00;0.00;;;;;;;6.21;58.30;101847.72;6248136;23;20008;-77
2023/03/04 09:59:24;;;;;;;0.00;0.00;;;;;;;6.41;58.16;101864.09;6219223;23;20008;-76
2023/03/04 10:01:49;;;;;;;0.00;0.00;;;;;;;6.45;58.21;101865.34;6220511;23;20323;-77
2023/03/04 10:04:41;;;;;;;0.00;0.00;;;;;;;6.49;59.12;101861.19;6246758;22;20005;-75
2023/03/04 10:07:18;;;;;;;0.00;0.00;;;;;;;6.63;59.24;101857.50;6221526;23;20007;-77
2023/03/04 10:10:05;;;;;;;0.00;0.00;;;;;;;6.69;58.58;101838.66;6242801;23;20000;-78
2023/03/04 10:12:36;;;;;;;0.00;0.00;;;;;;;6.81;57.78;101853.34;6248331;23;19996;-76
2023/03/04 10:15:24;;;;;;;0.10;0.10;;;;;;;6.88;58.21;101865.06;6245666;23;20020;-77
2023/03/04 10:17:59;;;;;;;0.00;0.00;;;;;;;6.69;57.96;101844.97;6218339;23;20012;-75
2023/03/04 10:20:29;;;;;;;0.10;0.10;;;;;;;6.75;57.50;101849.56;6218925;23;20000;-76
2023/03/04 10:23:07;;;;;;;0.00;0.00;;;;;;;6.79;57.18;101845.41;6218795;23;20102;-76
2023/03/04 10:25:34;;;;;;;0.00;0.00;;;;;;;6.87;57.39;101846.25;6221445;23;20435;-76
2023/03/04 10:28:16;;;;;;;0.00;0.00;;;;;;;6.96;57.73;101856.72;6220547;23;19996;-76
2023/03/04 10:31:00;;;;;;;0.00;0.00;;;;;;;7.04;56.90;101852.97;6247644;23;19996;-75
2023/03/04 10:33:34;;;;;;;0.00;0.00;;;;;;;7.09;57.17;101845.00;6220561;23;20008;-77
2023/03/04 10:36:04;;;;;;;0.00;0.00;;;;;;;7.19;56.95;101857.38;6223008;23;20007;-76
2023/03/04 10:38:43;;;;;;;0.00;0.00;;;;;;;7.07;56.49;101836.22;6221918;23;20004;-77
2023/03/04 10:41:19;;;;;;;0.00;0.00;;;;;;;7.12;56.22;101828.25;6249334;23;20004;-77
2023/03/04 10:44:11;;;;;;;0.00;0.00;;;;;;;7.28;56.53;101854.22;6246567;23;20000;-78
2023/03/04 10:46:39;;;;;;;0.00;0.00;;;;;;;7.36;56.80;101836.88;6212129;23;20063;-78
2023/03/04 10:49:14;;;;;;;0.00;0.00;;;;;;;7.37;56.06;101837.69;6218180;23;20011;-77
2023/03/04 10:51:50;;;;;;;0.00;0.00;;;;;;;7.53;56.33;101839.97;6222306;23;20095;-77
2023/03/04 10:54:28;;;;;;;0.00;0.00;;;;;;;7.57;55.98;101848.59;6220528;23;20015;-79
2023/03/04 10:57:14;;;;;;;;;;;;;;;;;;;;;
2023/03/04 10:59:49;;;;;;;0.00;0.00;;;;;;;7.46;55.53;101840.00;6250305;23;20042;-78
2023/03/04 11:02:34;;;;;;;0.00;0.00;;;;;;;7.41;56.12;101820.75;6224793;23;20469;-78
2023/03/04 11:05:24;;;;;;;0.00;0.00;;;;;;;7.51;55.25;101834.75;6224269;23;20000;-79
2023/03/04 11:07:52;;;;;;;0.00;0.00;;;;;;;7.50;55.23;101832.25;6244906;23;20007;-78
2023/03/04 11:10:27;;;;;;;0.00;0.00;;;;;;;7.54;55.15;101835.41;6248632;23;20079;-78
2023/03/04 11:13:13;;;;;;;0.00;0.00;;;;;;;7.49;55.75;101839.59;6224641;22;20362;-78
2023/03/04 11:16:14;;;;;;;0.00;0.00;;;;;;;7.57;55.10;101829.53;6255651;22;20011;-77
2023/03/04 11:18:45;;;;;;;0.00;0.00;;;;;;;7.64;55.44;101809.41;6250573;22;20007;-77
2023/03/04 11:21:23;;;;;;;0.00;0.00;;;;;;;7.84;55.60;101816.66;6253515;22;20445;-77
2023/03/04 11:24:25;;;;;;;0.00;0.00;;;;;;;7.92;54.37;101826.53;6256899;22;19999;-77
2023/03/04 11:27:04;;;;;;;0.00;0.00;;;;;;;7.94;54.22;101824.41;6257956;22;19991;-78
2023/03/04 11:29:41;;;;;;;0.00;0.00;;;;;;;7.85;54.13;101804.75;6263775;22;20014;-77
2023/03/04 11:32:23;;;;;;;0.00;0.00;;;;;;;7.85;53.63;101819.19;6254554;22;19996;-77
2023/03/04 11:34:53;;;;;;;0.00;0.00;;;;;;;7.77;53.87;101808.53;6255401;22;20012;-76
2023/03/04 11:37:39;;;;;;;0.00;0.00;;;;;;;7.86;53.74;101812.69;6276665;22;20460;-79
2023/03/04 11:40:39;;;;;;;0.00;0.00;;;;;;;7.94;54.18;101811.63;6252426;22;20007;-79
2023/03/04 11:43:20;;;;;;;0.00;0.00;;;;;;;8.04;53.51;101813.91;6252812;22;20023;-78
2023/03/04 11:46:04;;;;;;;0.00;0.00;;;;;;;8.03;53.68;101802.16;6250545;22;20022;-79
2023/03/04 11:48:44;;;;;;;0.00;0.00;;;;;;;8.23;53.23;101803.13;6253074;22;20080;-77
2023/03/04 11:55:04;;;;;;;0.00;0.00;;;;;;;8.55;52.95;101804.88;6259273;22;20015;-80
2023/03/04 11:57:57;;;;;;;0.00;0.00;;;;;;;8.66;52.90;101799.78;6252508;22;20496;-79